Terminal Aerodrome Forecast
Issued by NWS

Home | Current Version | Previous Version | Text Only | Print | Product List | Glossary On
Versions: 1 2 3 4 5 6 7 8 9 10 11 12 13 14 15 16 17 18 19 20
000
FTUS41 KGYX 270157 AAA
TAFRKD
TAF AMD
KRKD 270157Z 2702/2724 22004KT P6SM SKC WS010/23040KT
     FM270400 23003KT 4SM BR SKC WS010/23040KT
     FM270600 24003KT 1/2SM FG BKN025 WS010/23040KT
     FM270800 23004KT 1/4SM FG OVC001 WS010/23040KT
     FM271400 21010KT 4SM BR OVC004
     FM271600 21011G18KT 6SM HZ OVC100
      AMD LTD TO CLD VIS AND WIND=

USA.gov is the U.S. government's official web portal to all federal, state and local government web resources and services.